Aeroporto :
LOGIN :

Iscrizione | Disclaimer

   EN    FR    IT 

 










Sommario :    VFR   VFR Marginale   IFR   IFR Intensivo   IFR Molto Intensivo
Visibilità : 
Base nubi : 
>= 8 km
>= 3000ft
5 / 8 km
1000 / 3000 ft
1500m / 5 km
500 / 1000 ft
800 / 1500m
200 / 500 ft
< 800m
< 200 ft
Simboli :   Temporali  Nebbia  Neve Forte  Precipitazioni Forti  Vento > 20 kt
SIGMETs :   Varie  Temporali  Ghiacco  Turbolenza  Onda orograficha  Ceneri Vulcaniche







- Altitudine del aeroporto : 183 ft
- Codice IATA : HAJ


EDDV - Hanover/Langenhagen Int.

ULTIMO METAR :
  • 242220Z 32009KT CAVOK 11/08 Q1014

METARs OBSOLETI :
  • 242150Z 31006KT 280V350 CAVOK 11/08 Q1014
  • 242120Z 32008KT CAVOK 12/08 Q1014
  • 242050Z 33009KT CAVOK 13/09 Q1014 NOSIG
  • 242020Z 34010KT CAVOK 14/08 Q1013 BECMG 32005KT
  • 241950Z 32008KT CAVOK 15/08 Q1013 NOSIG

TAF TAF EDDV
Valido dal 24 a 18 ore il 25 a 18 ore UTC


241700Z 2418/2518 29010KT CAVOK
BECMG 2418/2420 29005KT
PROB30
TEMPO 2505/2507 BKN012
BECMG 2506/2508 28010KT
Nessun NOTAM noto per questo aeroporto.



MetMap, La meteo Aeronautica in un colpo d'occhio ! - Copyright ORBIFLY Dicembre 2007 - Disclaimer

ORBIFLY MET'MAP TEAM :

Programmazione e sviluppo : Alexandra Zaïnal
Concezione e sviluppo : Baudouin d'Aumeries
Co-Programmazione e sviluppo : Marc-Olivier Méhu
Supporto tecnico e logistico : Manuel Goepfert
Aiuto per la traduzione : Arnaldo La Scala

Contatto : metmap@orbifly.com




FONTI E CREDITI :

   NOAA